sensor_id;sensor_type;location;lat;lon;timestamp;pressure;altitude;pressure_sealevel;temperature;humidity
18819;BME280;9537;45.594;9.294;2023-09-19T00:00:14;99312.63;;;20.70;100.00
18819;BME280;9537;45.594;9.294;2023-09-19T00:01:16;99320.69;;;20.70;100.00
18819;BME280;9537;45.594;9.294;2023-09-19T00:02:20;99316.94;;;20.72;100.00
18819;BME280;9537;45.594;9.294;2023-09-19T00:03:22;99315.88;;;20.73;100.00
18819;BME280;9537;45.594;9.294;2023-09-19T00:04:23;99315.09;;;20.72;100.00
18819;BME280;9537;45.594;9.294;2023-09-19T00:05:29;99314.81;;;20.74;100.00
18819;BME280;9537;45.594;9.294;2023-09-19T00:06:31;99327.66;;;20.72;100.00
18819;BME280;9537;45.594;9.294;2023-09-19T00:07:33;99322.78;;;20.68;100.00
18819;BME280;9537;45.594;9.294;2023-09-19T00:08:37;99314.19;;;20.66;100.00
18819;BME280;9537;45.594;9.294;2023-09-19T00:09:38;99315.50;;;20.64;100.00
18819;BME280;9537;45.594;9.294;2023-09-19T00:10:39;99321.09;;;20.62;100.00
18819;BME280;9537;45.594;9.294;2023-09-19T00:11:42;99331.84;;;20.62;100.00
18819;BME280;9537;45.594;9.294;2023-09-19T00:12:43;99324.34;;;20.64;100.00
18819;BME280;9537;45.594;9.294;2023-09-19T00:13:48;99324.34;;;20.64;100.00
18819;BME280;9537;45.594;9.294;2023-09-19T00:14:50;99326.25;;;20.64;100.00
18819;BME280;9537;45.594;9.294;2023-09-19T00:15:53;99322.47;;;20.65;100.00
18819;BME280;9537;45.594;9.294;2023-09-19T00:16:56;99328.34;;;20.62;100.00
18819;BME280;9537;45.594;9.294;2023-09-19T00:17:58;99325.66;;;20.62;100.00
18819;BME280;9537;45.594;9.294;2023-09-19T00:18:59;99317.63;;;20.62;100.00
18819;BME280;9537;45.594;9.294;2023-09-19T00:20:05;99318.91;;;20.59;100.00
18819;BME280;9537;45.594;9.294;2023-09-19T00:21:09;99316.72;;;20.56;100.00
18819;BME280;9537;45.594;9.294;2023-09-19T00:22:11;99324.78;;;20.56;100.00
18819;BME280;9537;45.594;9.294;2023-09-19T00:23:13;99321.03;;;20.57;100.00
18819;BME280;9537;45.594;9.294;2023-09-19T00:24:14;99313.22;;;20.56;100.00
18819;BME280;9537;45.594;9.294;2023-09-19T00:25:18;99304.38;;;20.55;100.00
18819;BME280;9537;45.594;9.294;2023-09-19T00:26:18;99312.97;;;20.57;100.00
18819;BME280;9537;45.594;9.294;2023-09-19T00:27:21;99317.53;;;20.57;100.00
18819;BME280;9537;45.594;9.294;2023-09-19T00:28:22;99308.44;;;20.58;100.00
18819;BME280;9537;45.594;9.294;2023-09-19T00:29:28;99308.19;;;20.59;100.00
18819;BME280;9537;45.594;9.294;2023-09-19T00:30:31;99313.31;;;20.61;100.00
18819;BME280;9537;45.594;9.294;2023-09-19T00:31:33;99314.84;;;20.57;100.00
18819;BME280;9537;45.594;9.294;2023-09-19T00:32:34;99312.44;;;20.55;100.00
18819;BME280;9537;45.594;9.294;2023-09-19T00:33:35;99314.31;;;20.55;100.00
18819;BME280;9537;45.594;9.294;2023-09-19T00:34:37;99309.16;;;20.53;100.00
18819;BME280;9537;45.594;9.294;2023-09-19T00:35:38;99313.72;;;20.53;100.00
18819;BME280;9537;45.594;9.294;2023-09-19T00:36:39;99314.53;;;20.53;100.00
18819;BME280;9537;45.594;9.294;2023-09-19T00:37:40;99313.47;;;20.54;100.00
18819;BME280;9537;45.594;9.294;2023-09-19T00:38:41;99315.56;;;20.52;100.00
18819;BME280;9537;45.594;9.294;2023-09-19T00:39:45;99316.63;;;20.51;100.00
18819;BME280;9537;45.594;9.294;2023-09-19T00:40:47;99317.69;;;20.50;100.00
18819;BME280;9537;45.594;9.294;2023-09-19T00:41:49;99311.44;;;20.44;100.00
18819;BME280;9537;45.594;9.294;2023-09-19T00:42:49;99315.41;;;20.42;100.00
18819;BME280;9537;45.594;9.294;2023-09-19T00:43:51;99315.19;;;20.43;100.00
18819;BME280;9537;45.594;9.294;2023-09-19T00:44:54;99314.13;;;20.44;100.00
18819;BME280;9537;45.594;9.294;2023-09-19T00:45:56;99331.28;;;20.43;100.00
18819;BME280;9537;45.594;9.294;2023-09-19T00:46:57;99327.22;;;20.41;100.00
18819;BME280;9537;45.594;9.294;2023-09-19T00:48:01;99327.22;;;20.41;100.00
18819;BME280;9537;45.594;9.294;2023-09-19T00:49:04;99330.69;;;20.41;100.00
18819;BME280;9537;45.594;9.294;2023-09-19T00:50:06;99325.34;;;20.41;100.00
18819;BME280;9537;45.594;9.294;2023-09-19T00:51:08;99328.81;;;20.42;100.00
18819;BME280;9537;45.594;9.294;2023-09-19T00:52:11;99331.50;;;20.42;100.00
18819;BME280;9537;45.594;9.294;2023-09-19T00:53:15;99327.75;;;20.43;100.00
18819;BME280;9537;45.594;9.294;2023-09-19T00:54:19;99336.88;;;20.42;100.00
18819;BME280;9537;45.594;9.294;2023-09-19T00:55:20;99331.78;;;20.40;100.00
18819;BME280;9537;45.594;9.294;2023-09-19T00:56:22;99333.59;;;20.40;100.00
18819;BME280;9537;45.594;9.294;2023-09-19T00:57:23;99339.81;;;20.40;100.00
18819;BME280;9537;45.594;9.294;2023-09-19T00:58:25;99342.97;;;20.37;100.00
18819;BME280;9537;45.594;9.294;2023-09-19T00:59:34;99348.31;;;20.37;100.00
18819;BME280;9537;45.594;9.294;2023-09-19T01:00:38;99356.38;;;20.37;100.00
18819;BME280;9537;45.594;9.294;2023-09-19T01:01:39;99352.06;;;20.36;100.00
18819;BME280;9537;45.594;9.294;2023-09-19T01:02:42;99346.97;;;20.35;100.00
18819;BME280;9537;45.594;9.294;2023-09-19T01:03:44;99353.38;;;20.34;100.00
18819;BME280;9537;45.594;9.294;2023-09-19T01:04:46;99355.00;;;20.35;100.00
18819;BME280;9537;45.594;9.294;2023-09-19T01:05:47;99352.34;;;20.35;100.00
18819;BME280;9537;45.594;9.294;2023-09-19T01:06:49;99348.00;;;20.34;100.00
18819;BME280;9537;45.594;9.294;2023-09-19T01:07:53;99355.00;;;20.35;100.00
18819;BME280;9537;45.594;9.294;2023-09-19T01:08:55;99355.50;;;20.32;100.00
18819;BME280;9537;45.594;9.294;2023-09-19T01:09:56;99348.25;;;20.32;100.00
18819;BME280;9537;45.594;9.294;2023-09-19T01:11:01;99350.13;;;20.32;100.00
18819;BME280;9537;45.594;9.294;2023-09-19T01:12:17;99344.78;;;20.32;100.00
18819;BME280;9537;45.594;9.294;2023-09-19T01:13:29;99349.06;;;20.33;100.00
18819;BME280;9537;45.594;9.294;2023-09-19T01:14:38;99347.47;;;20.32;100.00
18819;BME280;9537;45.594;9.294;2023-09-19T01:15:51;99352.25;;;20.30;100.00
18819;BME280;9537;45.594;9.294;2023-09-19T01:17:00;99356.81;;;20.29;100.00
18819;BME280;9537;45.594;9.294;2023-09-19T01:18:13;99351.09;;;20.25;100.00
18819;BME280;9537;45.594;9.294;2023-09-19T01:19:41;99346.31;;;20.28;100.00
18819;BME280;9537;45.594;9.294;2023-09-19T01:20:46;99351.09;;;20.25;100.00
18819;BME280;9537;45.594;9.294;2023-09-19T01:21:58;99351.34;;;20.24;100.00
18819;BME280;9537;45.594;9.294;2023-09-19T01:23:13;99339.22;;;20.21;100.00
18819;BME280;9537;45.594;9.294;2023-09-19T01:24:34;99353.22;;;20.23;100.00
18819;BME280;9537;45.594;9.294;2023-09-19T01:26:07;99349.47;;;20.24;100.00
18819;BME280;9537;45.594;9.294;2023-09-19T01:27:33;99354.59;;;20.26;100.00
18819;BME280;9537;45.594;9.294;2023-09-19T01:28:59;99342.81;;;20.27;100.00
18819;BME280;9537;45.594;9.294;2023-09-19T01:30:14;99351.09;;;20.25;100.00
18819;BME280;9537;45.594;9.294;2023-09-19T01:31:16;99350.28;;;20.25;100.00
18819;BME280;9537;45.594;9.294;2023-09-19T01:32:21;99353.22;;;20.23;100.00
18819;BME280;9537;45.594;9.294;2023-09-19T01:33:25;99349.69;;;20.23;100.00
18819;BME280;9537;45.594;9.294;2023-09-19T01:34:26;99351.34;;;20.24;100.00
18819;BME280;9537;45.594;9.294;2023-09-19T01:35:28;99347.59;;;20.25;100.00
18819;BME280;9537;45.594;9.294;2023-09-19T01:36:30;99354.03;;;20.24;100.00
18819;BME280;9537;45.594;9.294;2023-09-19T01:37:34;99352.38;;;20.23;100.00
18819;BME280;9537;45.594;9.294;2023-09-19T01:38:35;99357.75;;;20.23;100.00
18819;BME280;9537;45.594;9.294;2023-09-19T01:39:37;99351.56;;;20.22;100.00
18819;BME280;9537;45.594;9.294;2023-09-19T01:40:41;99351.56;;;20.22;100.00
18819;BME280;9537;45.594;9.294;2023-09-19T01:41:54;99352.38;;;20.23;100.00
18819;BME280;9537;45.594;9.294;2023-09-19T01:43:03;99351.84;;;20.21;100.00
18819;BME280;9537;45.594;9.294;2023-09-19T01:44:15;99356.63;;;20.19;100.00
18819;BME280;9537;45.594;9.294;2023-09-19T01:45:26;99355.22;;;20.16;100.00
18819;BME280;9537;45.594;9.294;2023-09-19T01:46:31;99352.56;;;20.16;100.00
18819;BME280;9537;45.594;9.294;2023-09-19T01:47:38;99352.56;;;20.16;100.00
18819;BME280;9537;45.594;9.294;2023-09-19T01:48:49;99351.66;;;20.11;100.00
18819;BME280;9537;45.594;9.294;2023-09-19T01:50:02;99348.16;;;20.10;100.00
18819;BME280;9537;45.594;9.294;2023-09-19T01:51:10;99347.34;;;20.10;100.00
18819;BME280;9537;45.594;9.294;2023-09-19T01:52:12;99349.22;;;20.09;100.00
18819;BME280;9537;45.594;9.294;2023-09-19T01:53:23;99351.81;;;20.04;100.00
18819;BME280;9537;45.594;9.294;2023-09-19T01:54:27;99348.56;;;20.02;100.00
18819;BME280;9537;45.594;9.294;2023-09-19T01:55:36;99348.56;;;20.02;100.00
18819;BME280;9537;45.594;9.294;2023-09-19T01:56:50;99351.00;;;20.03;100.00
18819;BME280;9537;45.594;9.294;2023-09-19T01:58:01;99350.09;;;19.98;100.00
18819;BME280;9537;45.594;9.294;2023-09-19T01:59:05;99353.34;;;20.00;100.00
18819;BME280;9537;45.594;9.294;2023-09-19T02:00:12;99359.53;;;20.00;100.00
18819;BME280;9537;45.594;9.294;2023-09-19T02:01:18;99361.38;;;20.00;100.00
18819;BME280;9537;45.594;9.294;2023-09-19T02:02:21;99359.75;;;19.99;100.00
18819;BME280;9537;45.594;9.294;2023-09-19T02:03:24;99359.19;;;19.97;100.00
18819;BME280;9537;45.594;9.294;2023-09-19T02:04:29;99365.03;;;19.94;99.88
18819;BME280;9537;45.594;9.294;2023-09-19T02:05:32;99365.03;;;19.94;100.00
18819;BME280;9537;45.594;9.294;2023-09-19T02:06:34;99357.00;;;19.94;100.00
18819;BME280;9537;45.594;9.294;2023-09-19T02:07:35;99360.47;;;19.94;100.00
18819;BME280;9537;45.594;9.294;2023-09-19T02:08:38;99369.34;;;19.95;100.00
18819;BME280;9537;45.594;9.294;2023-09-19T02:09:39;99362.13;;;19.95;100.00
18819;BME280;9537;45.594;9.294;2023-09-19T02:10:43;99361.31;;;19.95;100.00
18819;BME280;9537;45.594;9.294;2023-09-19T02:11:49;99359.66;;;19.94;100.00
18819;BME280;9537;45.594;9.294;2023-09-19T02:12:51;99361.31;;;19.95;100.00
18819;BME280;9537;45.594;9.294;2023-09-19T02:13:51;99353.50;;;19.93;100.00
18819;BME280;9537;45.594;9.294;2023-09-19T02:14:54;99361.81;;;19.92;100.00
18819;BME280;9537;45.594;9.294;2023-09-19T02:15:57;99355.59;;;19.91;100.00
18819;BME280;9537;45.594;9.294;2023-09-19T02:17:00;99358.28;;;19.91;100.00
18819;BME280;9537;45.594;9.294;2023-09-19T02:18:01;99359.34;;;19.90;100.00
18819;BME280;9537;45.594;9.294;2023-09-19T02:19:04;99356.66;;;19.90;100.00
18819;BME280;9537;45.594;9.294;2023-09-19T02:20:07;99355.53;;;19.86;100.00
18819;BME280;9537;45.594;9.294;2023-09-19T02:21:10;99353.66;;;19.87;100.00
18819;BME280;9537;45.594;9.294;2023-09-19T02:22:12;99353.09;;;19.85;100.00
18819;BME280;9537;45.594;9.294;2023-09-19T02:23:13;99359.03;;;19.87;100.00
18819;BME280;9537;45.594;9.294;2023-09-19T02:24:16;99350.41;;;19.85;100.00
18819;BME280;9537;45.594;9.294;2023-09-19T02:25:16;99354.69;;;19.86;100.00
18819;BME280;9537;45.594;9.294;2023-09-19T02:26:18;99353.34;;;19.83;100.00
18819;BME280;9537;45.594;9.294;2023-09-19T02:27:20;99356.56;;;19.85;100.00
18819;BME280;9537;45.594;9.294;2023-09-19T02:28:21;99354.69;;;19.86;100.00
18819;BME280;9537;45.594;9.294;2023-09-19T02:29:23;99352.00;;;19.86;100.00
18819;BME280;9537;45.594;9.294;2023-09-19T02:30:25;99349.34;;;19.86;100.00
18819;BME280;9537;45.594;9.294;2023-09-19T02:31:26;99354.69;;;19.86;100.00
18819;BME280;9537;45.594;9.294;2023-09-19T02:32:31;99354.94;;;19.84;100.00
18819;BME280;9537;45.594;9.294;2023-09-19T02:33:36;99353.88;;;19.85;100.00
18819;BME280;9537;45.594;9.294;2023-09-19T02:34:37;99352.28;;;19.84;100.00
18819;BME280;9537;45.594;9.294;2023-09-19T02:35:40;99349.81;;;19.83;100.00
18819;BME280;9537;45.594;9.294;2023-09-19T02:36:41;99349.81;;;19.83;100.00
18819;BME280;9537;45.594;9.294;2023-09-19T02:37:44;99353.56;;;19.82;100.00
18819;BME280;9537;45.594;9.294;2023-09-19T02:38:45;99353.34;;;19.83;100.00
18819;BME280;9537;45.594;9.294;2023-09-19T02:39:47;99343.91;;;19.80;100.00
18819;BME280;9537;45.594;9.294;2023-09-19T02:40:47;99344.13;;;19.79;99.72
18819;BME280;9537;45.594;9.294;2023-09-19T02:41:49;99341.22;;;19.80;99.59
18819;BME280;9537;45.594;9.294;2023-09-19T02:42:53;99340.38;;;19.80;99.32
18819;BME280;9537;45.594;9.294;2023-09-19T02:43:55;99339.59;;;19.79;99.37
18819;BME280;9537;45.594;9.294;2023-09-19T02:44:57;99344.72;;;19.81;99.22
18819;BME280;9537;45.594;9.294;2023-09-19T02:45:58;99343.91;;;19.80;99.10
18819;BME280;9537;45.594;9.294;2023-09-19T02:47:00;99334.47;;;19.78;99.52
18819;BME280;9537;45.594;9.294;2023-09-19T02:48:03;99340.06;;;19.76;100.00
18819;BME280;9537;45.594;9.294;2023-09-19T02:49:05;99347.06;;;19.77;99.26
18819;BME280;9537;45.594;9.294;2023-09-19T02:50:07;99342.75;;;19.76;98.78
18819;BME280;9537;45.594;9.294;2023-09-19T02:51:10;99347.56;;;19.74;97.87
18819;BME280;9537;45.594;9.294;2023-09-19T02:52:11;99345.31;;;19.71;98.04
18819;BME280;9537;45.594;9.294;2023-09-19T02:53:14;99336.75;;;19.69;98.35
18819;BME280;9537;45.594;9.294;2023-09-19T02:54:17;99339.91;;;19.66;98.10
18819;BME280;9537;45.594;9.294;2023-09-19T02:55:18;99339.50;;;19.63;98.37
18819;BME280;9537;45.594;9.294;2023-09-19T02:56:22;99336.59;;;19.64;98.84
18819;BME280;9537;45.594;9.294;2023-09-19T02:57:23;99331.25;;;19.64;98.82
18819;BME280;9537;45.594;9.294;2023-09-19T02:58:25;99337.66;;;19.63;99.13
18819;BME280;9537;45.594;9.294;2023-09-19T02:59:26;99336.84;;;19.63;99.39
18819;BME280;9537;45.594;9.294;2023-09-19T03:00:28;99332.53;;;19.62;99.65
18819;BME280;9537;45.594;9.294;2023-09-19T03:01:30;99337.31;;;19.59;99.86
18819;BME280;9537;45.594;9.294;2023-09-19T03:02:32;99336.50;;;19.59;99.79
18819;BME280;9537;45.594;9.294;2023-09-19T03:03:36;99338.38;;;19.58;100.00
18819;BME280;9537;45.594;9.294;2023-09-19T03:04:39;99338.13;;;19.60;99.73
18819;BME280;9537;45.594;9.294;2023-09-19T03:05:40;99331.72;;;19.61;99.42
18819;BME280;9537;45.594;9.294;2023-09-19T03:06:47;99336.03;;;19.62;99.15
18819;BME280;9537;45.594;9.294;2023-09-19T03:07:49;99334.16;;;19.63;98.93
18819;BME280;9537;45.594;9.294;2023-09-19T03:08:52;99333.34;;;19.62;99.11
18819;BME280;9537;45.594;9.294;2023-09-19T03:09:53;99338.47;;;19.64;99.12
18819;BME280;9537;45.594;9.294;2023-09-19T03:10:53;99338.69;;;19.62;99.38
18819;BME280;9537;45.594;9.294;2023-09-19T03:11:55;99338.13;;;19.60;99.58
18819;BME280;9537;45.594;9.294;2023-09-19T03:12:57;99335.44;;;19.60;99.83
18819;BME280;9537;45.594;9.294;2023-09-19T03:14:00;99334.41;;;19.61;100.00
18819;BME280;9537;45.594;9.294;2023-09-19T03:15:01;99333.34;;;19.62;100.00
18819;BME280;9537;45.594;9.294;2023-09-19T03:16:03;99338.97;;;19.61;99.18
18819;BME280;9537;45.594;9.294;2023-09-19T03:17:06;99334.31;;;19.56;98.87
18819;BME280;9537;45.594;9.294;2023-09-19T03:18:09;99329.44;;;19.53;98.97
18819;BME280;9537;45.594;9.294;2023-09-19T03:19:11;99331.03;;;19.54;98.75
18819;BME280;9537;45.594;9.294;2023-09-19T03:20:15;99328.38;;;19.54;98.99
18819;BME280;9537;45.594;9.294;2023-09-19T03:21:17;99327.56;;;19.53;98.56
18819;BME280;9537;45.594;9.294;2023-09-19T03:22:19;99329.44;;;19.53;98.51
18819;BME280;9537;45.594;9.294;2023-09-19T03:23:21;99326.75;;;19.53;98.00
18819;BME280;9537;45.594;9.294;2023-09-19T03:24:22;99325.13;;;19.52;97.70
18819;BME280;9537;45.594;9.294;2023-09-19T03:25:24;99328.63;;;19.52;97.80
18819;BME280;9537;45.594;9.294;2023-09-19T03:26:25;99328.84;;;19.51;97.71
18819;BME280;9537;45.594;9.294;2023-09-19T03:27:27;99323.75;;;19.49;97.79
18819;BME280;9537;45.594;9.294;2023-09-19T03:28:28;99320.25;;;19.49;97.92
18819;BME280;9537;45.594;9.294;2023-09-19T03:29:29;99327.47;;;19.48;98.32
18819;BME280;9537;45.594;9.294;2023-09-19T03:30:31;99320.25;;;19.49;98.25
18819;BME280;9537;45.594;9.294;2023-09-19T03:31:34;99324.78;;;19.48;98.31
18819;BME280;9537;45.594;9.294;2023-09-19T03:32:37;99324.78;;;19.48;98.73
18819;BME280;9537;45.594;9.294;2023-09-19T03:33:43;99326.44;;;19.49;98.69
18819;BME280;9537;45.594;9.294;2023-09-19T03:34:47;99320.25;;;19.49;98.67
18819;BME280;9537;45.594;9.294;2023-09-19T03:35:52;99314.31;;;19.47;98.55
18819;BME280;9537;45.594;9.294;2023-09-19T03:36:52;99321.88;;;19.50;98.35
18819;BME280;9537;45.594;9.294;2023-09-19T03:37:55;99314.91;;;19.49;98.51
18819;BME280;9537;45.594;9.294;2023-09-19T03:38:56;99310.00;;;19.46;98.63
18819;BME280;9537;45.594;9.294;2023-09-19T03:39:58;99318.03;;;19.46;98.83
18819;BME280;9537;45.594;9.294;2023-09-19T03:40:59;99318.50;;;19.43;98.95
18819;BME280;9537;45.594;9.294;2023-09-19T03:42:02;99313.41;;;19.41;98.90
18819;BME280;9537;45.594;9.294;2023-09-19T03:43:04;99313.16;;;19.43;98.45
18819;BME280;9537;45.594;9.294;2023-09-19T03:44:06;99315.28;;;19.41;98.36
18819;BME280;9537;45.594;9.294;2023-09-19T03:45:07;99316.91;;;19.42;98.02
18819;BME280;9537;45.594;9.294;2023-09-19T03:46:12;99310.47;;;19.43;97.84
18819;BME280;9537;45.594;9.294;2023-09-19T03:47:15;99313.41;;;19.41;97.26
18819;BME280;9537;45.594;9.294;2023-09-19T03:48:18;99314.47;;;19.40;97.34
18819;BME280;9537;45.594;9.294;2023-09-19T03:49:20;99312.25;;;19.37;97.06
18819;BME280;9537;45.594;9.294;2023-09-19T03:50:23;99319.47;;;19.36;97.05
18819;BME280;9537;45.594;9.294;2023-09-19T03:51:24;99318.44;;;19.38;96.49
18819;BME280;9537;45.594;9.294;2023-09-19T03:52:26;99311.22;;;19.38;96.22
18819;BME280;9537;45.594;9.294;2023-09-19T03:53:27;99319.25;;;19.38;96.31
18819;BME280;9537;45.594;9.294;2023-09-19T03:54:28;99321.66;;;19.40;96.44
18819;BME280;9537;45.594;9.294;2023-09-19T03:55:29;99319.84;;;19.40;96.91
18819;BME280;9537;45.594;9.294;2023-09-19T03:56:31;99317.97;;;19.41;97.00
18819;BME280;9537;45.594;9.294;2023-09-19T03:57:32;99325.06;;;19.35;96.80
18819;BME280;9537;45.594;9.294;2023-09-19T03:58:36;99325.06;;;19.35;96.80
18819;BME280;9537;45.594;9.294;2023-09-19T03:59:39;99323.69;;;19.32;97.54
18819;BME280;9537;45.594;9.294;2023-09-19T04:00:43;99323.69;;;19.32;97.43
18819;BME280;9537;45.594;9.294;2023-09-19T04:01:43;99325.78;;;19.30;97.52
18819;BME280;9537;45.594;9.294;2023-09-19T04:02:46;99326.50;;;19.26;97.37
18819;BME280;9537;45.594;9.294;2023-09-19T04:03:47;99328.34;;;19.25;96.79
18819;BME280;9537;45.594;9.294;2023-09-19T04:04:49;99324.88;;;19.25;96.25
18819;BME280;9537;45.594;9.294;2023-09-19T04:05:51;99330.47;;;19.23;96.36
18819;BME280;9537;45.594;9.294;2023-09-19T04:06:52;99328.59;;;19.24;96.26
18819;BME280;9537;45.594;9.294;2023-09-19T04:07:53;99329.41;;;19.24;96.73
18819;BME280;9537;45.594;9.294;2023-09-19T04:08:55;99332.69;;;19.26;96.97
18819;BME280;9537;45.594;9.294;2023-09-19T04:09:57;99330.81;;;19.27;97.13
18819;BME280;9537;45.594;9.294;2023-09-19T04:10:59;99339.41;;;19.29;97.02
18819;BME280;9537;45.594;9.294;2023-09-19T04:12:00;99337.56;;;19.29;97.27
18819;BME280;9537;45.594;9.294;2023-09-19T04:13:00;99340.44;;;19.28;97.52
18819;BME280;9537;45.594;9.294;2023-09-19T04:14:03;99345.81;;;19.28;97.71
18819;BME280;9537;45.594;9.294;2023-09-19T04:15:05;99342.56;;;19.26;97.76
18819;BME280;9537;45.594;9.294;2023-09-19T04:16:07;99335.00;;;19.23;98.23
18819;BME280;9537;45.594;9.294;2023-09-19T04:17:08;99337.91;;;19.21;98.01
18819;BME280;9537;45.594;9.294;2023-09-19T04:18:10;99334.66;;;19.19;98.09
18819;BME280;9537;45.594;9.294;2023-09-19T04:19:11;99330.38;;;19.18;98.16
18819;BME280;9537;45.594;9.294;2023-09-19T04:20:15;99328.97;;;19.16;98.30
18819;BME280;9537;45.594;9.294;2023-09-19T04:21:19;99330.03;;;19.15;98.84
18819;BME280;9537;45.594;9.294;2023-09-19T04:22:21;99335.38;;;19.15;99.01
18819;BME280;9537;45.594;9.294;2023-09-19T04:23:22;99338.88;;;19.15;99.47
18819;BME280;9537;45.594;9.294;2023-09-19T04:24:24;99336.41;;;19.13;99.95
18819;BME280;9537;45.594;9.294;2023-09-19T04:25:24;99337.81;;;19.16;100.00
18819;BME280;9537;45.594;9.294;2023-09-19T04:26:27;99344.78;;;19.17;99.41
18819;BME280;9537;45.594;9.294;2023-09-19T04:27:28;99339.22;;;19.19;98.96
18819;BME280;9537;45.594;9.294;2023-09-19T04:28:29;99343.16;;;19.16;97.76
18819;BME280;9537;45.594;9.294;2023-09-19T04:29:32;99346.91;;;19.15;97.20
18819;BME280;9537;45.594;9.294;2023-09-19T04:30:33;99349.81;;;19.13;96.80
18819;BME280;9537;45.594;9.294;2023-09-19T04:31:34;99349.47;;;19.10;96.54
18819;BME280;9537;45.594;9.294;2023-09-19T04:32:35;99346.78;;;19.10;96.48
18819;BME280;9537;45.594;9.294;2023-09-19T04:33:36;99349.94;;;19.07;96.63
18819;BME280;9537;45.594;9.294;2023-09-19T04:34:38;99354.72;;;19.05;96.41
18819;BME280;9537;45.594;9.294;2023-09-19T04:35:39;99357.84;;;19.02;96.36
18819;BME280;9537;45.594;9.294;2023-09-19T04:36:44;99352.75;;;19.00;96.57
18819;BME280;9537;45.594;9.294;2023-09-19T04:37:45;99355.44;;;19.00;96.43
18819;BME280;9537;45.594;9.294;2023-09-19T04:38:47;99350.06;;;19.00;96.78
18819;BME280;9537;45.594;9.294;2023-09-19T04:39:48;99356.25;;;19.01;97.27
18819;BME280;9537;45.594;9.294;2023-09-19T04:40:49;99349.81;;;19.02;97.64
18819;BME280;9537;45.594;9.294;2023-09-19T04:41:51;99362.16;;;19.03;97.73
18819;BME280;9537;45.594;9.294;2023-09-19T04:42:53;99363.78;;;19.04;97.87
18819;BME280;9537;45.594;9.294;2023-09-19T04:43:57;99366.00;;;19.07;98.19
18819;BME280;9537;45.594;9.294;2023-09-19T04:44:58;99366.22;;;19.05;97.93
18819;BME280;9537;45.594;9.294;2023-09-19T04:46:01;99368.91;;;19.05;96.86
18819;BME280;9537;45.594;9.294;2023-09-19T04:47:02;99365.88;;;19.02;96.26
18819;BME280;9537;45.594;9.294;2023-09-19T04:48:04;99368.56;;;19.02;95.99
18819;BME280;9537;45.594;9.294;2023-09-19T04:49:06;99364.50;;;18.99;96.21
18819;BME280;9537;45.594;9.294;2023-09-19T04:50:09;99366.59;;;18.97;96.44
18819;BME280;9537;45.594;9.294;2023-09-19T04:51:12;99367.41;;;18.98;96.30
18819;BME280;9537;45.594;9.294;2023-09-19T04:52:15;99368.44;;;18.97;96.49
18819;BME280;9537;45.594;9.294;2023-09-19T04:53:16;99370.31;;;18.96;96.62
18819;BME280;9537;45.594;9.294;2023-09-19T04:54:29;99371.13;;;18.97;97.05
18819;BME280;9537;45.594;9.294;2023-09-19T04:55:30;99371.72;;;18.99;97.17
18819;BME280;9537;45.594;9.294;2023-09-19T04:56:33;99370.44;;;19.01;97.37
18819;BME280;9537;45.594;9.294;2023-09-19T04:57:34;99376.59;;;19.02;97.22
18819;BME280;9537;45.594;9.294;2023-09-19T04:58:34;99371.25;;;19.02;97.42
18819;BME280;9537;45.594;9.294;2023-09-19T04:59:36;99374.72;;;19.02;97.19
18819;BME280;9537;45.594;9.294;2023-09-19T05:00:37;99377.31;;;18.97;96.91
18819;BME280;9537;45.594;9.294;2023-09-19T05:01:39;99374.84;;;18.96;96.66
18819;BME280;9537;45.594;9.294;2023-09-19T05:02:39;99379.41;;;18.95;96.42
18819;BME280;9537;45.594;9.294;2023-09-19T05:03:40;99377.41;;;18.90;96.40
18819;BME280;9537;45.594;9.294;2023-09-19T05:04:42;99382.19;;;18.88;96.78
18819;BME280;9537;45.594;9.294;2023-09-19T05:05:43;99379.97;;;18.85;97.01
18819;BME280;9537;45.594;9.294;2023-09-19T05:06:45;99381.97;;;18.90;97.06
18819;BME280;9537;45.594;9.294;2023-09-19T05:07:47;99383.34;;;18.93;96.89
18819;BME280;9537;45.594;9.294;2023-09-19T05:08:48;99382.53;;;18.92;97.15
18819;BME280;9537;45.594;9.294;2023-09-19T05:09:51;99382.28;;;18.94;96.95
18819;BME280;9537;45.594;9.294;2023-09-19T05:10:52;99387.44;;;18.95;97.21
18819;BME280;9537;45.594;9.294;2023-09-19T05:11:54;99386.38;;;18.96;97.43
18819;BME280;9537;45.594;9.294;2023-09-19T05:12:54;99387.19;;;18.97;97.55
18819;BME280;9537;45.594;9.294;2023-09-19T05:13:57;99390.31;;;18.94;97.58
18819;BME280;9537;45.594;9.294;2023-09-19T05:14:57;99388.38;;;18.89;97.29
18819;BME280;9537;45.594;9.294;2023-09-19T05:16:00;99389.97;;;18.90;97.31
18819;BME280;9537;45.594;9.294;2023-09-19T05:17:03;99394.19;;;18.86;97.29
18819;BME280;9537;45.594;9.294;2023-09-19T05:18:04;99394.41;;;18.84;97.52
18819;BME280;9537;45.594;9.294;2023-09-19T05:19:06;99397.88;;;18.85;97.65
18819;BME280;9537;45.594;9.294;2023-09-19T05:20:09;99396.88;;;18.86;97.73
18819;BME280;9537;45.594;9.294;2023-09-19T05:21:14;99395.00;;;18.86;98.02
18819;BME280;9537;45.594;9.294;2023-09-19T05:22:14;99392.31;;;18.86;97.98
18819;BME280;9537;45.594;9.294;2023-09-19T05:23:20;99392.88;;;18.88;98.16
18819;BME280;9537;45.594;9.294;2023-09-19T05:24:21;99392.66;;;18.90;98.46
18819;BME280;9537;45.594;9.294;2023-09-19T05:25:24;99387.09;;;18.92;98.56
18819;BME280;9537;45.594;9.294;2023-09-19T05:26:25;99386.50;;;18.89;98.44
18819;BME280;9537;45.594;9.294;2023-09-19T05:27:27;99396.16;;;18.90;98.12
18819;BME280;9537;45.594;9.294;2023-09-19T05:28:27;99387.31;;;18.90;97.66
18819;BME280;9537;45.594;9.294;2023-09-19T05:29:30;99388.38;;;18.89;97.62
18819;BME280;9537;45.594;9.294;2023-09-19T05:30:30;99393.72;;;18.89;97.76
18819;BME280;9537;45.594;9.294;2023-09-19T05:31:32;99398.81;;;18.90;97.73
18819;BME280;9537;45.594;9.294;2023-09-19T05:32:33;99398.22;;;18.88;97.76
18819;BME280;9537;45.594;9.294;2023-09-19T05:33:35;99399.63;;;18.91;97.49
18819;BME280;9537;45.594;9.294;2023-09-19T05:34:36;99401.75;;;18.89;97.26
18819;BME280;9537;45.594;9.294;2023-09-19T05:35:38;99404.63;;;18.87;97.13
18819;BME280;9537;45.594;9.294;2023-09-19T05:36:40;99407.56;;;18.86;96.34